sensor_id;sensor_type;location;lat;lon;timestamp;P1;durP1;ratioP1;P2;durP2;ratioP2
20022;SDS011;10172;42.054;24.546;2022-07-22T00:01:14;4.72;;;3.20;;
20022;SDS011;10172;42.054;24.546;2022-07-22T00:03:40;5.30;;;3.22;;
20022;SDS011;10172;42.054;24.546;2022-07-22T00:06:05;8.20;;;3.45;;
20022;SDS011;10172;42.054;24.546;2022-07-22T00:08:31;9.15;;;3.28;;
20022;SDS011;10172;42.054;24.546;2022-07-22T00:10:57;6.75;;;3.10;;
20022;SDS011;10172;42.054;24.546;2022-07-22T00:13:22;5.82;;;3.53;;
20022;SDS011;10172;42.054;24.546;2022-07-22T00:15:48;6.75;;;3.20;;
20022;SDS011;10172;42.054;24.546;2022-07-22T00:18:13;6.03;;;3.22;;
20022;SDS011;10172;42.054;24.546;2022-07-22T00:20:39;5.07;;;3.17;;
20022;SDS011;10172;42.054;24.546;2022-07-22T00:23:04;7.78;;;3.42;;
20022;SDS011;10172;42.054;24.546;2022-07-22T00:25:29;4.90;;;3.05;;
20022;SDS011;10172;42.054;24.546;2022-07-22T00:27:55;4.97;;;2.97;;
20022;SDS011;10172;42.054;24.546;2022-07-22T00:30:20;9.32;;;3.35;;
20022;SDS011;10172;42.054;24.546;2022-07-22T00:32:46;3.90;;;3.00;;
20022;SDS011;10172;42.054;24.546;2022-07-22T00:35:12;5.18;;;3.08;;
20022;SDS011;10172;42.054;24.546;2022-07-22T00:37:37;5.53;;;2.70;;
20022;SDS011;10172;42.054;24.546;2022-07-22T00:40:03;6.22;;;3.33;;
20022;SDS011;10172;42.054;24.546;2022-07-22T00:42:29;6.30;;;3.22;;
20022;SDS011;10172;42.054;24.546;2022-07-22T00:44:55;4.40;;;2.97;;
20022;SDS011;10172;42.054;24.546;2022-07-22T00:47:21;8.00;;;3.28;;
20022;SDS011;10172;42.054;24.546;2022-07-22T00:49:47;7.30;;;3.38;;
20022;SDS011;10172;42.054;24.546;2022-07-22T00:52:13;6.25;;;2.90;;
20022;SDS011;10172;42.054;24.546;2022-07-22T00:54:38;4.97;;;3.33;;
20022;SDS011;10172;42.054;24.546;2022-07-22T00:57:04;9.32;;;3.55;;
20022;SDS011;10172;42.054;24.546;2022-07-22T00:59:29;5.25;;;3.50;;
20022;SDS011;10172;42.054;24.546;2022-07-22T01:01:55;5.32;;;3.00;;
20022;SDS011;10172;42.054;24.546;2022-07-22T01:04:21;6.57;;;3.20;;
20022;SDS011;10172;42.054;24.546;2022-07-22T01:06:46;5.43;;;3.13;;
20022;SDS011;10172;42.054;24.546;2022-07-22T01:09:13;4.95;;;3.35;;
20022;SDS011;10172;42.054;24.546;2022-07-22T01:11:39;4.10;;;2.70;;
20022;SDS011;10172;42.054;24.546;2022-07-22T01:14:05;6.05;;;3.13;;
20022;SDS011;10172;42.054;24.546;2022-07-22T01:16:30;4.35;;;2.97;;
20022;SDS011;10172;42.054;24.546;2022-07-22T01:18:56;5.65;;;2.97;;
20022;SDS011;10172;42.054;24.546;2022-07-22T01:21:22;6.30;;;3.08;;
20022;SDS011;10172;42.054;24.546;2022-07-22T01:23:48;9.07;;;3.33;;
20022;SDS011;10172;42.054;24.546;2022-07-22T01:26:14;7.95;;;3.45;;
20022;SDS011;10172;42.054;24.546;2022-07-22T01:28:39;4.05;;;2.60;;
20022;SDS011;10172;42.054;24.546;2022-07-22T01:31:06;5.07;;;3.13;;
20022;SDS011;10172;42.054;24.546;2022-07-22T01:33:32;7.90;;;3.38;;
20022;SDS011;10172;42.054;24.546;2022-07-22T01:35:59;4.63;;;2.65;;
20022;SDS011;10172;42.054;24.546;2022-07-22T01:38:25;5.35;;;3.05;;
20022;SDS011;10172;42.054;24.546;2022-07-22T01:40:51;7.07;;;2.97;;
20022;SDS011;10172;42.054;24.546;2022-07-22T01:43:16;6.15;;;2.90;;
20022;SDS011;10172;42.054;24.546;2022-07-22T01:45:46;7.78;;;3.60;;
20022;SDS011;10172;42.054;24.546;2022-07-22T01:48:14;6.63;;;3.60;;
20022;SDS011;10172;42.054;24.546;2022-07-22T01:50:40;6.25;;;3.22;;
20022;SDS011;10172;42.054;24.546;2022-07-22T01:53:06;4.07;;;2.90;;
20022;SDS011;10172;42.054;24.546;2022-07-22T01:55:32;6.28;;;3.40;;
20022;SDS011;10172;42.054;24.546;2022-07-22T01:57:58;5.38;;;3.20;;
20022;SDS011;10172;42.054;24.546;2022-07-22T02:00:24;5.10;;;3.22;;
20022;SDS011;10172;42.054;24.546;2022-07-22T02:02:49;4.82;;;2.95;;
20022;SDS011;10172;42.054;24.546;2022-07-22T02:05:15;7.15;;;3.38;;
20022;SDS011;10172;42.054;24.546;2022-07-22T02:07:40;8.00;;;3.50;;
20022;SDS011;10172;42.054;24.546;2022-07-22T02:10:06;5.55;;;3.10;;
20022;SDS011;10172;42.054;24.546;2022-07-22T02:12:32;9.63;;;3.20;;
20022;SDS011;10172;42.054;24.546;2022-07-22T02:14:57;4.55;;;3.05;;
20022;SDS011;10172;42.054;24.546;2022-07-22T02:17:23;5.10;;;3.45;;
20022;SDS011;10172;42.054;24.546;2022-07-22T02:19:50;7.28;;;3.05;;
20022;SDS011;10172;42.054;24.546;2022-07-22T02:22:16;6.93;;;3.03;;
20022;SDS011;10172;42.054;24.546;2022-07-22T02:24:41;7.78;;;3.63;;
20022;SDS011;10172;42.054;24.546;2022-07-22T02:27:07;4.70;;;2.92;;
20022;SDS011;10172;42.054;24.546;2022-07-22T02:29:32;5.93;;;3.70;;
20022;SDS011;10172;42.054;24.546;2022-07-22T02:31:58;4.85;;;3.17;;
20022;SDS011;10172;42.054;24.546;2022-07-22T02:34:24;3.90;;;2.80;;
20022;SDS011;10172;42.054;24.546;2022-07-22T02:36:50;6.13;;;3.40;;
20022;SDS011;10172;42.054;24.546;2022-07-22T02:39:15;5.20;;;2.70;;
20022;SDS011;10172;42.054;24.546;2022-07-22T02:41:41;4.00;;;3.08;;
20022;SDS011;10172;42.054;24.546;2022-07-22T02:44:06;5.20;;;3.60;;
20022;SDS011;10172;42.054;24.546;2022-07-22T02:46:32;6.90;;;3.72;;
20022;SDS011;10172;42.054;24.546;2022-07-22T02:48:57;5.60;;;3.17;;
20022;SDS011;10172;42.054;24.546;2022-07-22T02:51:23;5.38;;;3.08;;
20022;SDS011;10172;42.054;24.546;2022-07-22T02:53:49;5.45;;;3.58;;
20022;SDS011;10172;42.054;24.546;2022-07-22T02:56:14;7.47;;;3.58;;
20022;SDS011;10172;42.054;24.546;2022-07-22T02:58:40;5.15;;;3.38;;
20022;SDS011;10172;42.054;24.546;2022-07-22T03:01:06;4.63;;;3.20;;
20022;SDS011;10172;42.054;24.546;2022-07-22T03:03:32;5.97;;;3.08;;
20022;SDS011;10172;42.054;24.546;2022-07-22T03:05:58;4.80;;;3.17;;
20022;SDS011;10172;42.054;24.546;2022-07-22T03:08:23;6.20;;;3.38;;
20022;SDS011;10172;42.054;24.546;2022-07-22T03:10:50;5.68;;;3.78;;
20022;SDS011;10172;42.054;24.546;2022-07-22T03:13:16;10.45;;;3.65;;
20022;SDS011;10172;42.054;24.546;2022-07-22T03:15:41;6.65;;;3.63;;
20022;SDS011;10172;42.054;24.546;2022-07-22T03:18:06;7.75;;;3.53;;
20022;SDS011;10172;42.054;24.546;2022-07-22T03:20:32;6.55;;;3.13;;
20022;SDS011;10172;42.054;24.546;2022-07-22T03:22:58;6.63;;;3.35;;
20022;SDS011;10172;42.054;24.546;2022-07-22T03:25:24;6.78;;;3.88;;
20022;SDS011;10172;42.054;24.546;2022-07-22T03:27:49;6.85;;;3.20;;
20022;SDS011;10172;42.054;24.546;2022-07-22T03:30:15;4.13;;;3.15;;
20022;SDS011;10172;42.054;24.546;2022-07-22T03:32:41;7.88;;;3.78;;
20022;SDS011;10172;42.054;24.546;2022-07-22T03:35:10;4.65;;;3.13;;
20022;SDS011;10172;42.054;24.546;2022-07-22T03:37:36;5.47;;;3.33;;
20022;SDS011;10172;42.054;24.546;2022-07-22T03:40:02;4.95;;;2.92;;
20022;SDS011;10172;42.054;24.546;2022-07-22T03:42:28;6.43;;;3.30;;
20022;SDS011;10172;42.054;24.546;2022-07-22T03:44:53;6.70;;;3.20;;
20022;SDS011;10172;42.054;24.546;2022-07-22T03:47:19;5.53;;;3.42;;
20022;SDS011;10172;42.054;24.546;2022-07-22T03:49:46;6.10;;;3.60;;
20022;SDS011;10172;42.054;24.546;2022-07-22T03:52:11;9.52;;;3.90;;
20022;SDS011;10172;42.054;24.546;2022-07-22T03:54:38;8.07;;;3.40;;
20022;SDS011;10172;42.054;24.546;2022-07-22T03:57:03;6.95;;;4.00;;
20022;SDS011;10172;42.054;24.546;2022-07-22T03:59:29;4.72;;;3.78;;
20022;SDS011;10172;42.054;24.546;2022-07-22T04:01:54;6.60;;;3.58;;
20022;SDS011;10172;42.054;24.546;2022-07-22T04:04:19;6.90;;;3.72;;
20022;SDS011;10172;42.054;24.546;2022-07-22T04:06:45;6.60;;;3.92;;
20022;SDS011;10172;42.054;24.546;2022-07-22T04:09:10;10.05;;;4.80;;
20022;SDS011;10172;42.054;24.546;2022-07-22T04:11:36;5.03;;;3.70;;
20022;SDS011;10172;42.054;24.546;2022-07-22T04:14:01;7.00;;;3.55;;
20022;SDS011;10172;42.054;24.546;2022-07-22T04:16:27;6.50;;;3.50;;
20022;SDS011;10172;42.054;24.546;2022-07-22T04:18:52;6.82;;;3.75;;
20022;SDS011;10172;42.054;24.546;2022-07-22T04:21:18;6.00;;;3.58;;
20022;SDS011;10172;42.054;24.546;2022-07-22T04:23:43;6.03;;;3.70;;
20022;SDS011;10172;42.054;24.546;2022-07-22T04:26:08;6.28;;;3.45;;
20022;SDS011;10172;42.054;24.546;2022-07-22T04:28:34;7.32;;;3.65;;
20022;SDS011;10172;42.054;24.546;2022-07-22T04:31:02;6.65;;;3.97;;
20022;SDS011;10172;42.054;24.546;2022-07-22T04:33:28;6.13;;;4.07;;
20022;SDS011;10172;42.054;24.546;2022-07-22T04:35:54;5.43;;;3.67;;
20022;SDS011;10172;42.054;24.546;2022-07-22T04:38:19;7.30;;;4.05;;
20022;SDS011;10172;42.054;24.546;2022-07-22T04:40:45;5.22;;;3.40;;
20022;SDS011;10172;42.054;24.546;2022-07-22T04:43:10;6.03;;;3.75;;
20022;SDS011;10172;42.054;24.546;2022-07-22T04:45:36;4.63;;;3.70;;
20022;SDS011;10172;42.054;24.546;2022-07-22T04:48:01;6.15;;;3.92;;
20022;SDS011;10172;42.054;24.546;2022-07-22T04:50:27;5.05;;;3.88;;
20022;SDS011;10172;42.054;24.546;2022-07-22T04:52:52;6.05;;;3.38;;
20022;SDS011;10172;42.054;24.546;2022-07-22T04:55:18;7.35;;;4.13;;
20022;SDS011;10172;42.054;24.546;2022-07-22T04:57:43;9.23;;;3.85;;
20022;SDS011;10172;42.054;24.546;2022-07-22T05:00:09;6.78;;;4.25;;
20022;SDS011;10172;42.054;24.546;2022-07-22T05:02:34;8.43;;;4.50;;
20022;SDS011;10172;42.054;24.546;2022-07-22T05:05:00;6.75;;;3.80;;
20022;SDS011;10172;42.054;24.546;2022-07-22T05:07:25;6.15;;;3.83;;
20022;SDS011;10172;42.054;24.546;2022-07-22T05:09:51;8.98;;;4.45;;
20022;SDS011;10172;42.054;24.546;2022-07-22T05:12:16;7.10;;;4.13;;
20022;SDS011;10172;42.054;24.546;2022-07-22T05:14:41;14.40;;;4.47;;
20022;SDS011;10172;42.054;24.546;2022-07-22T05:17:11;5.28;;;4.00;;
20022;SDS011;10172;42.054;24.546;2022-07-22T05:19:37;6.90;;;4.22;;
20022;SDS011;10172;42.054;24.546;2022-07-22T05:22:06;8.40;;;4.90;;
20022;SDS011;10172;42.054;24.546;2022-07-22T05:24:32;10.20;;;4.68;;
20022;SDS011;10172;42.054;24.546;2022-07-22T05:26:57;7.55;;;4.45;;
20022;SDS011;10172;42.054;24.546;2022-07-22T05:29:22;8.32;;;4.20;;
20022;SDS011;10172;42.054;24.546;2022-07-22T05:31:48;7.53;;;4.45;;
20022;SDS011;10172;42.054;24.546;2022-07-22T05:34:14;6.45;;;4.45;;
20022;SDS011;10172;42.054;24.546;2022-07-22T05:36:39;7.93;;;4.75;;
20022;SDS011;10172;42.054;24.546;2022-07-22T05:39:04;7.60;;;4.60;;
20022;SDS011;10172;42.054;24.546;2022-07-22T05:41:30;7.38;;;4.82;;
20022;SDS011;10172;42.054;24.546;2022-07-22T05:43:55;6.90;;;4.57;;
20022;SDS011;10172;42.054;24.546;2022-07-22T05:46:21;10.07;;;5.15;;
20022;SDS011;10172;42.054;24.546;2022-07-22T05:48:46;7.03;;;4.80;;
20022;SDS011;10172;42.054;24.546;2022-07-22T05:51:12;6.78;;;4.40;;
20022;SDS011;10172;42.054;24.546;2022-07-22T05:53:39;7.35;;;4.57;;
20022;SDS011;10172;42.054;24.546;2022-07-22T05:56:05;9.32;;;4.43;;
20022;SDS011;10172;42.054;24.546;2022-07-22T05:58:31;8.48;;;4.53;;
20022;SDS011;10172;42.054;24.546;2022-07-22T06:00:56;8.75;;;4.93;;
20022;SDS011;10172;42.054;24.546;2022-07-22T06:03:23;7.97;;;4.43;;
20022;SDS011;10172;42.054;24.546;2022-07-22T06:05:49;8.13;;;4.53;;
20022;SDS011;10172;42.054;24.546;2022-07-22T06:08:14;7.82;;;4.93;;
20022;SDS011;10172;42.054;24.546;2022-07-22T06:10:40;8.27;;;5.20;;
20022;SDS011;10172;42.054;24.546;2022-07-22T06:13:05;7.32;;;4.50;;
20022;SDS011;10172;42.054;24.546;2022-07-22T06:15:31;7.28;;;4.50;;
20022;SDS011;10172;42.054;24.546;2022-07-22T06:17:56;7.25;;;4.78;;
20022;SDS011;10172;42.054;24.546;2022-07-22T06:20:22;10.10;;;4.70;;
20022;SDS011;10172;42.054;24.546;2022-07-22T06:22:47;9.23;;;4.97;;
20022;SDS011;10172;42.054;24.546;2022-07-22T06:25:13;10.52;;;5.38;;
20022;SDS011;10172;42.054;24.546;2022-07-22T06:27:38;7.65;;;5.20;;
20022;SDS011;10172;42.054;24.546;2022-07-22T06:30:04;7.68;;;4.55;;
20022;SDS011;10172;42.054;24.546;2022-07-22T06:32:30;6.50;;;4.97;;
20022;SDS011;10172;42.054;24.546;2022-07-22T06:34:55;9.15;;;5.18;;
20022;SDS011;10172;42.054;24.546;2022-07-22T06:37:21;8.10;;;5.07;;
20022;SDS011;10172;42.054;24.546;2022-07-22T06:39:46;8.73;;;5.28;;
20022;SDS011;10172;42.054;24.546;2022-07-22T06:42:13;7.82;;;4.88;;
20022;SDS011;10172;42.054;24.546;2022-07-22T06:44:38;11.40;;;5.13;;
20022;SDS011;10172;42.054;24.546;2022-07-22T06:47:04;6.15;;;4.65;;
20022;SDS011;10172;42.054;24.546;2022-07-22T06:49:29;7.72;;;4.60;;
20022;SDS011;10172;42.054;24.546;2022-07-22T06:51:55;6.78;;;4.40;;
20022;SDS011;10172;42.054;24.546;2022-07-22T06:54:21;10.05;;;4.65;;
20022;SDS011;10172;42.054;24.546;2022-07-22T06:56:46;7.53;;;4.80;;
20022;SDS011;10172;42.054;24.546;2022-07-22T06:59:12;8.15;;;4.65;;
20022;SDS011;10172;42.054;24.546;2022-07-22T07:01:37;6.70;;;4.53;;
20022;SDS011;10172;42.054;24.546;2022-07-22T07:04:03;7.00;;;4.60;;
20022;SDS011;10172;42.054;24.546;2022-07-22T07:06:28;10.02;;;4.45;;
20022;SDS011;10172;42.054;24.546;2022-07-22T07:08:54;6.05;;;4.28;;
20022;SDS011;10172;42.054;24.546;2022-07-22T07:11:19;9.63;;;4.55;;
20022;SDS011;10172;42.054;24.546;2022-07-22T07:13:44;6.88;;;4.38;;
20022;SDS011;10172;42.054;24.546;2022-07-22T07:16:10;5.10;;;3.65;;
20022;SDS011;10172;42.054;24.546;2022-07-22T07:18:35;6.60;;;4.28;;
20022;SDS011;10172;42.054;24.546;2022-07-22T07:21:02;4.93;;;3.75;;
20022;SDS011;10172;42.054;24.546;2022-07-22T07:23:28;6.03;;;4.15;;
20022;SDS011;10172;42.054;24.546;2022-07-22T07:25:54;8.07;;;3.55;;
20022;SDS011;10172;42.054;24.546;2022-07-22T07:28:20;7.57;;;4.28;;
20022;SDS011;10172;42.054;24.546;2022-07-22T07:30:46;6.78;;;4.25;;
20022;SDS011;10172;42.054;24.546;2022-07-22T07:33:11;6.88;;;3.75;;
20022;SDS011;10172;42.054;24.546;2022-07-22T07:35:37;5.55;;;3.97;;
20022;SDS011;10172;42.054;24.546;2022-07-22T07:38:02;5.53;;;3.65;;
20022;SDS011;10172;42.054;24.546;2022-07-22T07:40:28;8.55;;;4.28;;
20022;SDS011;10172;42.054;24.546;2022-07-22T07:42:54;7.78;;;4.45;;
20022;SDS011;10172;42.054;24.546;2022-07-22T07:45:19;7.68;;;4.60;;
20022;SDS011;10172;42.054;24.546;2022-07-22T07:47:45;6.18;;;4.22;;
20022;SDS011;10172;42.054;24.546;2022-07-22T07:50:10;7.45;;;4.45;;
20022;SDS011;10172;42.054;24.546;2022-07-22T07:52:43;8.27;;;4.50;;
20022;SDS011;10172;42.054;24.546;2022-07-22T07:55:12;9.18;;;4.50;;
20022;SDS011;10172;42.054;24.546;2022-07-22T07:57:38;6.55;;;4.45;;
20022;SDS011;10172;42.054;24.546;2022-07-22T08:00:05;8.55;;;4.47;;
20022;SDS011;10172;42.054;24.546;2022-07-22T08:02:33;7.68;;;4.47;;
20022;SDS011;10172;42.054;24.546;2022-07-22T08:04:58;8.65;;;3.97;;
20022;SDS011;10172;42.054;24.546;2022-07-22T08:07:24;8.60;;;3.97;;
20022;SDS011;10172;42.054;24.546;2022-07-22T08:09:49;7.47;;;3.85;;
20022;SDS011;10172;42.054;24.546;2022-07-22T08:12:14;5.40;;;3.63;;
20022;SDS011;10172;42.054;24.546;2022-07-22T08:14:40;5.97;;;3.65;;
20022;SDS011;10172;42.054;24.546;2022-07-22T08:17:05;5.75;;;3.78;;
20022;SDS011;10172;42.054;24.546;2022-07-22T08:19:31;7.50;;;3.90;;
20022;SDS011;10172;42.054;24.546;2022-07-22T08:21:56;8.82;;;4.43;;
20022;SDS011;10172;42.054;24.546;2022-07-22T08:24:22;6.38;;;3.88;;
20022;SDS011;10172;42.054;24.546;2022-07-22T08:26:47;7.85;;;3.70;;
20022;SDS011;10172;42.054;24.546;2022-07-22T08:29:13;10.10;;;4.00;;
20022;SDS011;10172;42.054;24.546;2022-07-22T08:31:38;6.47;;;3.50;;
20022;SDS011;10172;42.054;24.546;2022-07-22T08:34:04;8.07;;;4.00;;
20022;SDS011;10172;42.054;24.546;2022-07-22T08:36:30;7.50;;;3.63;;
20022;SDS011;10172;42.054;24.546;2022-07-22T08:38:55;8.07;;;3.83;;
20022;SDS011;10172;42.054;24.546;2022-07-22T08:41:22;6.60;;;3.53;;
20022;SDS011;10172;42.054;24.546;2022-07-22T08:43:49;6.93;;;3.78;;
20022;SDS011;10172;42.054;24.546;2022-07-22T08:46:15;5.05;;;3.70;;
20022;SDS011;10172;42.054;24.546;2022-07-22T08:48:41;11.63;;;3.97;;
20022;SDS011;10172;42.054;24.546;2022-07-22T08:51:07;5.95;;;3.42;;
20022;SDS011;10172;42.054;24.546;2022-07-22T08:53:33;6.53;;;3.47;;
20022;SDS011;10172;42.054;24.546;2022-07-22T08:55:58;5.90;;;3.40;;
20022;SDS011;10172;42.054;24.546;2022-07-22T08:58:25;5.35;;;3.10;;
20022;SDS011;10172;42.054;24.546;2022-07-22T09:01:05;5.63;;;3.55;;
20022;SDS011;10172;42.054;24.546;2022-07-22T09:03:35;4.68;;;3.42;;
20022;SDS011;10172;42.054;24.546;2022-07-22T09:06:10;6.32;;;3.08;;
20022;SDS011;10172;42.054;24.546;2022-07-22T09:08:49;6.10;;;3.00;;
20022;SDS011;10172;42.054;24.546;2022-07-22T09:11:26;8.10;;;3.15;;
20022;SDS011;10172;42.054;24.546;2022-07-22T09:13:54;5.85;;;2.60;;
20022;SDS011;10172;42.054;24.546;2022-07-22T09:19:09;6.97;;;3.20;;
20022;SDS011;10172;42.054;24.546;2022-07-22T09:21:35;8.43;;;3.58;;
20022;SDS011;10172;42.054;24.546;2022-07-22T09:24:03;10.10;;;3.47;;
20022;SDS011;10172;42.054;24.546;2022-07-22T09:26:30;7.65;;;3.78;;
20022;SDS011;10172;42.054;24.546;2022-07-22T09:28:57;4.82;;;3.17;;
20022;SDS011;10172;42.054;24.546;2022-07-22T09:31:24;6.53;;;3.38;;
20022;SDS011;10172;42.054;24.546;2022-07-22T09:33:51;7.13;;;3.72;;
20022;SDS011;10172;42.054;24.546;2022-07-22T09:36:19;6.10;;;3.78;;
20022;SDS011;10172;42.054;24.546;2022-07-22T09:38:44;5.20;;;3.17;;
20022;SDS011;10172;42.054;24.546;2022-07-22T09:41:10;7.53;;;3.33;;
20022;SDS011;10172;42.054;24.546;2022-07-22T09:43:35;6.38;;;3.08;;
20022;SDS011;10172;42.054;24.546;2022-07-22T09:46:02;3.83;;;2.70;;
20022;SDS011;10172;42.054;24.546;2022-07-22T09:48:29;7.60;;;3.22;;
20022;SDS011;10172;42.054;24.546;2022-07-22T09:50:55;7.70;;;3.40;;
20022;SDS011;10172;42.054;24.546;2022-07-22T09:53:22;7.03;;;4.00;;
20022;SDS011;10172;42.054;24.546;2022-07-22T09:55:49;5.55;;;3.05;;
20022;SDS011;10172;42.054;24.546;2022-07-22T09:58:15;6.80;;;3.25;;
20022;SDS011;10172;42.054;24.546;2022-07-22T10:00:40;6.95;;;3.08;;
20022;SDS011;10172;42.054;24.546;2022-07-22T10:03:08;6.15;;;3.58;;
20022;SDS011;10172;42.054;24.546;2022-07-22T10:05:38;5.78;;;3.60;;
20022;SDS011;10172;42.054;24.546;2022-07-22T10:08:05;6.03;;;3.53;;
20022;SDS011;10172;42.054;24.546;2022-07-22T10:10:33;8.20;;;3.55;;
20022;SDS011;10172;42.054;24.546;2022-07-22T10:13:00;7.63;;;3.33;;
20022;SDS011;10172;42.054;24.546;2022-07-22T10:15:27;5.72;;;3.50;;
20022;SDS011;10172;42.054;24.546;2022-07-22T10:17:55;7.40;;;3.47;;
20022;SDS011;10172;42.054;24.546;2022-07-22T10:20:24;8.95;;;3.60;;
20022;SDS011;10172;42.054;24.546;2022-07-22T10:25:17;5.18;;;2.90;;
20022;SDS011;10172;42.054;24.546;2022-07-22T10:30:24;6.82;;;3.55;;
20022;SDS011;10172;42.054;24.546;2022-07-22T10:35:28;6.72;;;2.97;;
20022;SDS011;10172;42.054;24.546;2022-07-22T10:37:55;5.55;;;3.10;;
20022;SDS011;10172;42.054;24.546;2022-07-22T10:40:23;6.95;;;3.53;;
20022;SDS011;10172;42.054;24.546;2022-07-22T10:45:26;5.03;;;2.80;;
20022;SDS011;10172;42.054;24.546;2022-07-22T10:47:59;9.13;;;3.60;;
20022;SDS011;10172;42.054;24.546;2022-07-22T10:53:07;10.02;;;2.78;;
20022;SDS011;10172;42.054;24.546;2022-07-22T10:55:38;5.53;;;3.15;;
20022;SDS011;10172;42.054;24.546;2022-07-22T11:00:59;5.28;;;2.67;;
20022;SDS011;10172;42.054;24.546;2022-07-22T11:03:29;5.40;;;2.88;;
20022;SDS011;10172;42.054;24.546;2022-07-22T11:05:55;6.45;;;2.67;;
20022;SDS011;10172;42.054;24.546;2022-07-22T11:08:21;5.68;;;3.10;;
20022;SDS011;10172;42.054;24.546;2022-07-22T11:10:48;5.50;;;2.90;;
20022;SDS011;10172;42.054;24.546;2022-07-22T11:13:31;6.85;;;3.30;;
20022;SDS011;10172;42.054;24.546;2022-07-22T11:16:13;8.70;;;3.55;;
20022;SDS011;10172;42.054;24.546;2022-07-22T11:18:52;6.07;;;3.75;;
20022;SDS011;10172;42.054;24.546;2022-07-22T11:21:31;7.72;;;3.00;;
20022;SDS011;10172;42.054;24.546;2022-07-22T11:23:59;5.65;;;3.30;;
20022;SDS011;10172;42.054;24.546;2022-07-22T11:26:49;4.65;;;3.53;;
20022;SDS011;10172;42.054;24.546;2022-07-22T11:29:17;6.65;;;2.95;;
20022;SDS011;10172;42.054;24.546;2022-07-22T11:31:56;5.72;;;3.17;;
20022;SDS011;10172;42.054;24.546;2022-07-22T11:34:23;7.78;;;3.65;;
20022;SDS011;10172;42.054;24.546;2022-07-22T11:36:49;7.93;;;3.40;;
20022;SDS011;10172;42.054;24.546;2022-07-22T11:39:20;6.78;;;3.45;;
20022;SDS011;10172;42.054;24.546;2022-07-22T11:41:47;7.63;;;3.30;;
20022;SDS011;10172;42.054;24.546;2022-07-22T11:44:16;7.07;;;4.00;;
20022;SDS011;10172;42.054;24.546;2022-07-22T11:46:43;7.88;;;3.72;;
20022;SDS011;10172;42.054;24.546;2022-07-22T11:49:09;9.32;;;3.60;;
20022;SDS011;10172;42.054;24.546;2022-07-22T11:51:38;7.45;;;3.60;;
20022;SDS011;10172;42.054;24.546;2022-07-22T11:54:04;6.15;;;3.40;;
20022;SDS011;10172;42.054;24.546;2022-07-22T11:56:30;10.05;;;3.90;;
20022;SDS011;10172;42.054;24.546;2022-07-22T11:58:57;7.28;;;4.20;;
20022;SDS011;10172;42.054;24.546;2022-07-22T12:01:24;9.77;;;3.75;;
20022;SDS011;10172;42.054;24.546;2022-07-22T12:03:54;6.38;;;3.42;;
20022;SDS011;10172;42.054;24.546;2022-07-22T12:06:24;8.02;;;4.30;;
20022;SDS011;10172;42.054;24.546;2022-07-22T12:08:55;7.03;;;4.35;;
20022;SDS011;10172;42.054;24.546;2022-07-22T12:11:29;11.05;;;4.28;;
20022;SDS011;10172;42.054;24.546;2022-07-22T12:13:55;6.22;;;3.70;;
20022;SDS011;10172;42.054;24.546;2022-07-22T12:18:58;6.07;;;3.92;;
20022;SDS011;10172;42.054;24.546;2022-07-22T12:21:27;7.30;;;4.35;;
20022;SDS011;10172;42.054;24.546;2022-07-22T12:24:04;6.72;;;4.57;;
20022;SDS011;10172;42.054;24.546;2022-07-22T12:26:44;11.45;;;4.18;;
20022;SDS011;10172;42.054;24.546;2022-07-22T12:29:21;6.55;;;4.18;;
20022;SDS011;10172;42.054;24.546;2022-07-22T12:31:55;5.70;;;4.05;;
20022;SDS011;10172;42.054;24.546;2022-07-22T12:34:33;8.15;;;4.32;;
20022;SDS011;10172;42.054;24.546;2022-07-22T12:37:11;7.72;;;4.05;;
20022;SDS011;10172;42.054;24.546;2022-07-22T12:39:39;9.43;;;4.65;;
20022;SDS011;10172;42.054;24.546;2022-07-22T12:42:17;5.85;;;4.00;;
20022;SDS011;10172;42.054;24.546;2022-07-22T12:44:52;6.80;;;4.10;;
20022;SDS011;10172;42.054;24.546;2022-07-22T12:53:12;5.95;;;4.15;;
20022;SDS011;10172;42.054;24.546;2022-07-22T12:55:40;5.65;;;3.42;;
20022;SDS011;10172;42.054;24.546;2022-07-22T12:58:07;6.93;;;4.13;;
20022;SDS011;10172;42.054;24.546;2022-07-22T13:00:34;6.70;;;4.40;;
20022;SDS011;10172;42.054;24.546;2022-07-22T13:03:01;8.38;;;4.30;;
20022;SDS011;10172;42.054;24.546;2022-07-22T13:05:27;7.57;;;3.80;;
20022;SDS011;10172;42.054;24.546;2022-07-22T13:07:52;5.60;;;4.25;;
20022;SDS011;10172;42.054;24.546;2022-07-22T13:10:19;8.40;;;4.55;;
20022;SDS011;10172;42.054;24.546;2022-07-22T13:12:49;8.48;;;4.30;;
20022;SDS011;10172;42.054;24.546;2022-07-22T13:15:15;8.90;;;4.25;;
20022;SDS011;10172;42.054;24.546;2022-07-22T13:17:41;7.97;;;4.22;;
20022;SDS011;10172;42.054;24.546;2022-07-22T13:20:08;8.95;;;4.20;;
20022;SDS011;10172;42.054;24.546;2022-07-22T13:22:35;6.47;;;4.00;;
20022;SDS011;10172;42.054;24.546;2022-07-22T13:25:01;6.65;;;3.75;;
20022;SDS011;10172;42.054;24.546;2022-07-22T13:27:26;9.55;;;4.35;;
20022;SDS011;10172;42.054;24.546;2022-07-22T13:29:52;7.82;;;3.90;;
20022;SDS011;10172;42.054;24.546;2022-07-22T13:32:17;5.47;;;3.75;;
20022;SDS011;10172;42.054;24.546;2022-07-22T13:34:43;6.85;;;4.20;;
20022;SDS011;10172;42.054;24.546;2022-07-22T13:37:08;7.05;;;3.80;;
20022;SDS011;10172;42.054;24.546;2022-07-22T13:39:34;9.75;;;3.90;;
20022;SDS011;10172;42.054;24.546;2022-07-22T13:41:59;8.85;;;4.10;;
20022;SDS011;10172;42.054;24.546;2022-07-22T13:44:25;7.05;;;3.80;;
20022;SDS011;10172;42.054;24.546;2022-07-22T13:46:50;4.57;;;3.10;;
20022;SDS011;10172;42.054;24.546;2022-07-22T13:49:16;7.10;;;3.47;;
20022;SDS011;10172;42.054;24.546;2022-07-22T13:51:41;9.50;;;3.60;;
20022;SDS011;10172;42.054;24.546;2022-07-22T13:54:07;5.68;;;3.70;;
20022;SDS011;10172;42.054;24.546;2022-07-22T13:56:33;7.40;;;4.15;;
20022;SDS011;10172;42.054;24.546;2022-07-22T13:58:59;12.00;;;3.85;;
20022;SDS011;10172;42.054;24.546;2022-07-22T14:01:25;7.72;;;3.83;;
20022;SDS011;10172;42.054;24.546;2022-07-22T14:03:51;6.72;;;4.30;;
20022;SDS011;10172;42.054;24.546;2022-07-22T14:06:16;9.32;;;4.03;;
20022;SDS011;10172;42.054;24.546;2022-07-22T14:08:42;10.82;;;3.80;;
20022;SDS011;10172;42.054;24.546;2022-07-22T14:11:08;9.27;;;6.50;;
20022;SDS011;10172;42.054;24.546;2022-07-22T14:13:33;8.48;;;5.05;;
20022;SDS011;10172;42.054;24.546;2022-07-22T14:15:58;8.98;;;4.72;;
20022;SDS011;10172;42.054;24.546;2022-07-22T14:18:44;8.23;;;4.60;;
20022;SDS011;10172;42.054;24.546;2022-07-22T14:21:09;6.07;;;4.00;;
20022;SDS011;10172;42.054;24.546;2022-07-22T14:23:35;5.88;;;3.50;;
20022;SDS011;10172;42.054;24.546;2022-07-22T14:26:00;11.00;;;6.70;;
20022;SDS011;10172;42.054;24.546;2022-07-22T14:28:26;8.00;;;4.45;;
20022;SDS011;10172;42.054;24.546;2022-07-22T14:30:51;11.30;;;6.95;;
20022;SDS011;10172;42.054;24.546;2022-07-22T14:33:16;8.50;;;4.28;;
20022;SDS011;10172;42.054;24.546;2022-07-22T14:35:42;10.60;;;4.05;;
20022;SDS011;10172;42.054;24.546;2022-07-22T14:38:07;5.03;;;3.33;;
20022;SDS011;10172;42.054;24.546;2022-07-22T14:40:33;5.32;;;3.53;;
20022;SDS011;10172;42.054;24.546;2022-07-22T14:42:58;6.25;;;3.75;;
20022;SDS011;10172;42.054;24.546;2022-07-22T14:45:24;7.35;;;3.97;;
20022;SDS011;10172;42.054;24.546;2022-07-22T14:47:49;7.43;;;3.40;;
20022;SDS011;10172;42.054;24.546;2022-07-22T14:50:15;7.05;;;3.33;;
20022;SDS011;10172;42.054;24.546;2022-07-22T14:52:40;7.78;;;3.72;;
20022;SDS011;10172;42.054;24.546;2022-07-22T14:55:06;5.10;;;3.53;;
20022;SDS011;10172;42.054;24.546;2022-07-22T14:57:31;9.02;;;3.45;;